sensor_id;sensor_type;location;lat;lon;timestamp;temperature;humidity
16995;DHT22;8614;48.522;9.206;2023-05-10T00:01:45;14.00;99.90
16995;DHT22;8614;48.522;9.206;2023-05-10T00:04:12;14.00;99.90
16995;DHT22;8614;48.522;9.206;2023-05-10T00:06:39;14.00;99.90
16995;DHT22;8614;48.522;9.206;2023-05-10T00:09:05;14.00;99.90
16995;DHT22;8614;48.522;9.206;2023-05-10T00:11:33;14.10;99.90
16995;DHT22;8614;48.522;9.206;2023-05-10T00:14:00;14.10;99.90
16995;DHT22;8614;48.522;9.206;2023-05-10T00:16:27;14.00;99.90
16995;DHT22;8614;48.522;9.206;2023-05-10T00:18:54;14.00;99.90
16995;DHT22;8614;48.522;9.206;2023-05-10T00:21:21;14.00;99.90
16995;DHT22;8614;48.522;9.206;2023-05-10T00:23:48;14.00;99.90
16995;DHT22;8614;48.522;9.206;2023-05-10T00:26:14;14.00;99.90
16995;DHT22;8614;48.522;9.206;2023-05-10T00:28:45;13.90;99.90
16995;DHT22;8614;48.522;9.206;2023-05-10T00:31:12;13.90;99.90
16995;DHT22;8614;48.522;9.206;2023-05-10T00:33:40;13.90;99.90
16995;DHT22;8614;48.522;9.206;2023-05-10T00:36:08;13.90;99.90
16995;DHT22;8614;48.522;9.206;2023-05-10T00:38:35;13.90;99.90
16995;DHT22;8614;48.522;9.206;2023-05-10T00:41:02;13.90;99.90
16995;DHT22;8614;48.522;9.206;2023-05-10T00:43:31;13.90;99.90
16995;DHT22;8614;48.522;9.206;2023-05-10T00:45:59;13.90;99.90
16995;DHT22;8614;48.522;9.206;2023-05-10T00:48:26;13.90;99.90
16995;DHT22;8614;48.522;9.206;2023-05-10T00:50:55;13.80;99.90
16995;DHT22;8614;48.522;9.206;2023-05-10T00:53:21;13.80;99.90
16995;DHT22;8614;48.522;9.206;2023-05-10T00:55:48;13.80;99.90
16995;DHT22;8614;48.522;9.206;2023-05-10T00:58:16;13.80;99.90
16995;DHT22;8614;48.522;9.206;2023-05-10T01:00:46;13.70;99.90
16995;DHT22;8614;48.522;9.206;2023-05-10T01:03:15;13.70;99.90
16995;DHT22;8614;48.522;9.206;2023-05-10T01:05:42;13.60;99.90
16995;DHT22;8614;48.522;9.206;2023-05-10T01:08:09;13.70;99.90
16995;DHT22;8614;48.522;9.206;2023-05-10T01:10:36;13.70;99.90
16995;DHT22;8614;48.522;9.206;2023-05-10T01:13:03;13.70;99.90
16995;DHT22;8614;48.522;9.206;2023-05-10T01:15:30;13.70;99.90
16995;DHT22;8614;48.522;9.206;2023-05-10T01:17:57;13.70;99.90
16995;DHT22;8614;48.522;9.206;2023-05-10T01:20:28;13.60;99.90
16995;DHT22;8614;48.522;9.206;2023-05-10T01:23:14;13.60;99.90
16995;DHT22;8614;48.522;9.206;2023-05-10T01:26:05;13.60;99.90
16995;DHT22;8614;48.522;9.206;2023-05-10T01:29:03;13.60;99.90
16995;DHT22;8614;48.522;9.206;2023-05-10T01:32:05;13.70;99.90
16995;DHT22;8614;48.522;9.206;2023-05-10T01:34:38;13.60;99.90
16995;DHT22;8614;48.522;9.206;2023-05-10T01:37:10;13.60;99.90
16995;DHT22;8614;48.522;9.206;2023-05-10T01:39:44;13.60;99.90
16995;DHT22;8614;48.522;9.206;2023-05-10T01:42:17;13.60;99.90
16995;DHT22;8614;48.522;9.206;2023-05-10T01:44:49;13.60;99.90
16995;DHT22;8614;48.522;9.206;2023-05-10T01:47:33;13.60;99.90
16995;DHT22;8614;48.522;9.206;2023-05-10T01:50:04;13.60;99.90
16995;DHT22;8614;48.522;9.206;2023-05-10T01:52:37;13.60;99.90
16995;DHT22;8614;48.522;9.206;2023-05-10T01:55:09;13.60;99.90
16995;DHT22;8614;48.522;9.206;2023-05-10T01:57:38;13.60;99.90
16995;DHT22;8614;48.522;9.206;2023-05-10T02:00:08;13.60;99.90
16995;DHT22;8614;48.522;9.206;2023-05-10T02:02:45;13.50;99.90
16995;DHT22;8614;48.522;9.206;2023-05-10T02:05:13;13.50;99.90
16995;DHT22;8614;48.522;9.206;2023-05-10T02:07:41;13.50;99.90
16995;DHT22;8614;48.522;9.206;2023-05-10T02:10:09;13.50;99.90
16995;DHT22;8614;48.522;9.206;2023-05-10T02:12:40;13.40;99.90
16995;DHT22;8614;48.522;9.206;2023-05-10T02:15:09;13.40;99.90
16995;DHT22;8614;48.522;9.206;2023-05-10T02:17:37;13.40;99.90
16995;DHT22;8614;48.522;9.206;2023-05-10T02:20:08;13.30;99.90
16995;DHT22;8614;48.522;9.206;2023-05-10T02:22:35;13.30;99.90
16995;DHT22;8614;48.522;9.206;2023-05-10T02:25:04;13.30;99.90
16995;DHT22;8614;48.522;9.206;2023-05-10T02:27:31;13.30;99.90
16995;DHT22;8614;48.522;9.206;2023-05-10T02:29:59;13.30;99.90
16995;DHT22;8614;48.522;9.206;2023-05-10T02:32:27;13.30;99.90
16995;DHT22;8614;48.522;9.206;2023-05-10T02:34:56;13.30;99.90
16995;DHT22;8614;48.522;9.206;2023-05-10T02:37:25;13.30;99.90
16995;DHT22;8614;48.522;9.206;2023-05-10T02:39:55;13.30;99.90
16995;DHT22;8614;48.522;9.206;2023-05-10T02:42:26;13.20;99.90
16995;DHT22;8614;48.522;9.206;2023-05-10T02:44:55;13.20;99.90
16995;DHT22;8614;48.522;9.206;2023-05-10T02:47:23;13.20;99.90
16995;DHT22;8614;48.522;9.206;2023-05-10T02:49:50;13.20;99.90
16995;DHT22;8614;48.522;9.206;2023-05-10T02:52:23;13.10;99.90
16995;DHT22;8614;48.522;9.206;2023-05-10T02:54:55;13.10;99.90
16995;DHT22;8614;48.522;9.206;2023-05-10T02:57:26;13.10;99.90
16995;DHT22;8614;48.522;9.206;2023-05-10T02:59:53;13.00;99.90
16995;DHT22;8614;48.522;9.206;2023-05-10T03:02:21;13.00;99.90
16995;DHT22;8614;48.522;9.206;2023-05-10T03:04:48;13.00;99.90
16995;DHT22;8614;48.522;9.206;2023-05-10T03:07:15;13.00;99.90
16995;DHT22;8614;48.522;9.206;2023-05-10T03:09:48;12.90;99.90
16995;DHT22;8614;48.522;9.206;2023-05-10T03:12:23;12.90;99.90
16995;DHT22;8614;48.522;9.206;2023-05-10T03:14:57;12.90;99.90
16995;DHT22;8614;48.522;9.206;2023-05-10T03:17:30;12.90;99.90
16995;DHT22;8614;48.522;9.206;2023-05-10T03:20:04;12.90;99.90
16995;DHT22;8614;48.522;9.206;2023-05-10T03:22:37;12.90;99.90
16995;DHT22;8614;48.522;9.206;2023-05-10T03:25:06;13.00;99.90
16995;DHT22;8614;48.522;9.206;2023-05-10T03:27:37;13.00;99.90
16995;DHT22;8614;48.522;9.206;2023-05-10T03:30:08;12.90;99.90
16995;DHT22;8614;48.522;9.206;2023-05-10T03:32:36;13.00;99.90
16995;DHT22;8614;48.522;9.206;2023-05-10T03:35:06;13.00;99.90
16995;DHT22;8614;48.522;9.206;2023-05-10T03:37:34;12.90;99.90
16995;DHT22;8614;48.522;9.206;2023-05-10T03:40:01;12.90;99.90
16995;DHT22;8614;48.522;9.206;2023-05-10T03:42:30;13.00;99.90
16995;DHT22;8614;48.522;9.206;2023-05-10T03:44:58;13.00;99.90
16995;DHT22;8614;48.522;9.206;2023-05-10T03:47:24;13.00;99.90
16995;DHT22;8614;48.522;9.206;2023-05-10T03:49:51;13.00;99.90
16995;DHT22;8614;48.522;9.206;2023-05-10T03:52:18;13.00;99.90
16995;DHT22;8614;48.522;9.206;2023-05-10T03:54:45;13.00;99.90
16995;DHT22;8614;48.522;9.206;2023-05-10T03:57:12;13.00;99.90
16995;DHT22;8614;48.522;9.206;2023-05-10T03:59:39;13.00;99.90
16995;DHT22;8614;48.522;9.206;2023-05-10T04:02:07;13.00;99.90
16995;DHT22;8614;48.522;9.206;2023-05-10T04:04:35;13.00;99.90
16995;DHT22;8614;48.522;9.206;2023-05-10T04:07:02;13.00;99.90
16995;DHT22;8614;48.522;9.206;2023-05-10T04:09:29;13.00;99.90
16995;DHT22;8614;48.522;9.206;2023-05-10T04:11:58;13.00;99.90
16995;DHT22;8614;48.522;9.206;2023-05-10T04:14:25;13.00;99.90
16995;DHT22;8614;48.522;9.206;2023-05-10T04:16:51;13.10;99.90
16995;DHT22;8614;48.522;9.206;2023-05-10T04:19:19;13.00;99.90
16995;DHT22;8614;48.522;9.206;2023-05-10T04:21:46;13.00;99.90
16995;DHT22;8614;48.522;9.206;2023-05-10T04:24:13;13.10;99.90
16995;DHT22;8614;48.522;9.206;2023-05-10T04:26:40;13.00;99.90
16995;DHT22;8614;48.522;9.206;2023-05-10T04:29:07;13.10;99.90
16995;DHT22;8614;48.522;9.206;2023-05-10T04:31:33;13.10;99.90
16995;DHT22;8614;48.522;9.206;2023-05-10T04:34:01;13.10;99.90
16995;DHT22;8614;48.522;9.206;2023-05-10T04:36:29;13.10;99.90
16995;DHT22;8614;48.522;9.206;2023-05-10T04:38:57;13.20;99.90
16995;DHT22;8614;48.522;9.206;2023-05-10T04:41:24;13.10;99.90
16995;DHT22;8614;48.522;9.206;2023-05-10T04:43:51;13.20;99.90
16995;DHT22;8614;48.522;9.206;2023-05-10T04:46:18;13.20;99.90
16995;DHT22;8614;48.522;9.206;2023-05-10T04:48:45;13.20;99.90
16995;DHT22;8614;48.522;9.206;2023-05-10T04:51:12;13.20;99.90
16995;DHT22;8614;48.522;9.206;2023-05-10T04:53:40;13.20;99.90
16995;DHT22;8614;48.522;9.206;2023-05-10T04:56:07;13.20;99.90
16995;DHT22;8614;48.522;9.206;2023-05-10T04:58:33;13.30;99.90
16995;DHT22;8614;48.522;9.206;2023-05-10T05:01:05;13.30;99.90
16995;DHT22;8614;48.522;9.206;2023-05-10T05:03:32;13.40;99.90
16995;DHT22;8614;48.522;9.206;2023-05-10T05:05:59;13.40;99.90
16995;DHT22;8614;48.522;9.206;2023-05-10T05:08:26;13.40;99.90
16995;DHT22;8614;48.522;9.206;2023-05-10T05:10:54;13.50;99.90
16995;DHT22;8614;48.522;9.206;2023-05-10T05:13:21;13.50;99.90
16995;DHT22;8614;48.522;9.206;2023-05-10T05:15:48;13.50;99.90
16995;DHT22;8614;48.522;9.206;2023-05-10T05:18:15;13.60;99.90
16995;DHT22;8614;48.522;9.206;2023-05-10T05:20:42;13.50;99.90
16995;DHT22;8614;48.522;9.206;2023-05-10T05:23:08;13.50;99.90
16995;DHT22;8614;48.522;9.206;2023-05-10T05:25:35;13.50;99.90
16995;DHT22;8614;48.522;9.206;2023-05-10T05:28:04;13.60;99.90
16995;DHT22;8614;48.522;9.206;2023-05-10T05:30:31;13.70;99.90
16995;DHT22;8614;48.522;9.206;2023-05-10T05:32:57;13.70;99.90
16995;DHT22;8614;48.522;9.206;2023-05-10T05:35:24;13.80;99.90
16995;DHT22;8614;48.522;9.206;2023-05-10T05:37:51;13.90;99.90
16995;DHT22;8614;48.522;9.206;2023-05-10T05:40:18;13.90;99.90
16995;DHT22;8614;48.522;9.206;2023-05-10T05:42:45;13.90;99.90
16995;DHT22;8614;48.522;9.206;2023-05-10T05:45:14;14.00;99.90
16995;DHT22;8614;48.522;9.206;2023-05-10T05:47:41;14.00;99.90
16995;DHT22;8614;48.522;9.206;2023-05-10T05:50:08;14.00;99.90
16995;DHT22;8614;48.522;9.206;2023-05-10T05:52:35;14.00;99.90
16995;DHT22;8614;48.522;9.206;2023-05-10T05:55:03;14.00;99.90
16995;DHT22;8614;48.522;9.206;2023-05-10T05:57:30;14.00;99.90
16995;DHT22;8614;48.522;9.206;2023-05-10T05:59:57;14.00;99.90
16995;DHT22;8614;48.522;9.206;2023-05-10T06:02:25;14.00;99.90
16995;DHT22;8614;48.522;9.206;2023-05-10T06:04:51;13.90;99.90
16995;DHT22;8614;48.522;9.206;2023-05-10T06:07:18;13.90;99.90
16995;DHT22;8614;48.522;9.206;2023-05-10T06:09:45;13.80;99.90
16995;DHT22;8614;48.522;9.206;2023-05-10T06:12:12;13.80;99.90
16995;DHT22;8614;48.522;9.206;2023-05-10T06:14:39;13.80;99.90
16995;DHT22;8614;48.522;9.206;2023-05-10T06:17:06;13.90;99.90
16995;DHT22;8614;48.522;9.206;2023-05-10T06:19:34;13.90;99.90
16995;DHT22;8614;48.522;9.206;2023-05-10T06:22:02;14.00;99.90
16995;DHT22;8614;48.522;9.206;2023-05-10T06:24:29;14.00;99.90
16995;DHT22;8614;48.522;9.206;2023-05-10T06:26:55;14.10;99.90
16995;DHT22;8614;48.522;9.206;2023-05-10T06:29:25;14.10;99.90
16995;DHT22;8614;48.522;9.206;2023-05-10T06:31:52;14.20;99.90
16995;DHT22;8614;48.522;9.206;2023-05-10T06:34:19;14.20;99.90
16995;DHT22;8614;48.522;9.206;2023-05-10T06:36:48;14.20;99.90
16995;DHT22;8614;48.522;9.206;2023-05-10T06:39:14;14.30;99.90
16995;DHT22;8614;48.522;9.206;2023-05-10T06:41:41;14.40;99.90
16995;DHT22;8614;48.522;9.206;2023-05-10T06:44:08;14.40;99.90
16995;DHT22;8614;48.522;9.206;2023-05-10T06:46:35;14.50;99.90
16995;DHT22;8614;48.522;9.206;2023-05-10T06:49:02;14.60;99.90
16995;DHT22;8614;48.522;9.206;2023-05-10T06:51:28;14.70;99.90
16995;DHT22;8614;48.522;9.206;2023-05-10T06:53:56;14.80;99.90
16995;DHT22;8614;48.522;9.206;2023-05-10T06:56:23;15.00;99.90
16995;DHT22;8614;48.522;9.206;2023-05-10T06:58:50;15.10;99.90
16995;DHT22;8614;48.522;9.206;2023-05-10T07:01:17;15.30;99.90
16995;DHT22;8614;48.522;9.206;2023-05-10T07:03:43;15.40;99.90
16995;DHT22;8614;48.522;9.206;2023-05-10T07:06:10;15.60;99.90
16995;DHT22;8614;48.522;9.206;2023-05-10T07:08:37;15.70;99.90
16995;DHT22;8614;48.522;9.206;2023-05-10T07:11:06;15.80;99.90
16995;DHT22;8614;48.522;9.206;2023-05-10T07:13:34;16.00;99.90
16995;DHT22;8614;48.522;9.206;2023-05-10T07:16:01;16.10;99.90
16995;DHT22;8614;48.522;9.206;2023-05-10T07:18:29;16.00;99.90
16995;DHT22;8614;48.522;9.206;2023-05-10T07:20:57;16.00;99.90
16995;DHT22;8614;48.522;9.206;2023-05-10T07:23:24;15.90;99.90
16995;DHT22;8614;48.522;9.206;2023-05-10T07:25:51;15.80;99.90
16995;DHT22;8614;48.522;9.206;2023-05-10T07:28:19;15.80;99.90
16995;DHT22;8614;48.522;9.206;2023-05-10T07:30:46;15.70;99.90
16995;DHT22;8614;48.522;9.206;2023-05-10T07:33:14;15.60;99.90
16995;DHT22;8614;48.522;9.206;2023-05-10T07:35:41;15.50;99.90
16995;DHT22;8614;48.522;9.206;2023-05-10T07:38:08;15.40;99.90
16995;DHT22;8614;48.522;9.206;2023-05-10T07:40:36;15.40;99.90
16995;DHT22;8614;48.522;9.206;2023-05-10T07:43:03;15.30;99.90
16995;DHT22;8614;48.522;9.206;2023-05-10T07:45:32;15.30;99.90
16995;DHT22;8614;48.522;9.206;2023-05-10T07:47:59;15.30;99.90
16995;DHT22;8614;48.522;9.206;2023-05-10T07:50:26;15.30;99.90
16995;DHT22;8614;48.522;9.206;2023-05-10T07:52:52;15.30;99.90
16995;DHT22;8614;48.522;9.206;2023-05-10T07:55:19;15.40;99.90
16995;DHT22;8614;48.522;9.206;2023-05-10T07:57:47;15.50;99.90
16995;DHT22;8614;48.522;9.206;2023-05-10T08:00:17;15.50;99.90
16995;DHT22;8614;48.522;9.206;2023-05-10T08:02:45;15.50;99.90
16995;DHT22;8614;48.522;9.206;2023-05-10T08:05:12;15.50;99.90
16995;DHT22;8614;48.522;9.206;2023-05-10T08:07:40;15.50;99.90
16995;DHT22;8614;48.522;9.206;2023-05-10T08:10:08;15.50;99.90
16995;DHT22;8614;48.522;9.206;2023-05-10T08:12:35;15.60;99.90
16995;DHT22;8614;48.522;9.206;2023-05-10T08:15:02;15.60;99.90
16995;DHT22;8614;48.522;9.206;2023-05-10T08:17:29;15.60;99.90
16995;DHT22;8614;48.522;9.206;2023-05-10T08:19:57;15.70;99.90
16995;DHT22;8614;48.522;9.206;2023-05-10T08:22:24;15.80;99.90
16995;DHT22;8614;48.522;9.206;2023-05-10T08:24:51;15.90;99.90
16995;DHT22;8614;48.522;9.206;2023-05-10T08:27:18;16.10;99.90
16995;DHT22;8614;48.522;9.206;2023-05-10T08:29:45;16.20;99.90
16995;DHT22;8614;48.522;9.206;2023-05-10T08:32:11;16.30;99.90
16995;DHT22;8614;48.522;9.206;2023-05-10T08:34:38;16.50;99.90
16995;DHT22;8614;48.522;9.206;2023-05-10T08:37:07;16.60;99.90
16995;DHT22;8614;48.522;9.206;2023-05-10T08:39:34;16.70;99.90
16995;DHT22;8614;48.522;9.206;2023-05-10T08:42:03;16.90;99.90
16995;DHT22;8614;48.522;9.206;2023-05-10T08:44:31;17.00;99.90
16995;DHT22;8614;48.522;9.206;2023-05-10T08:46:59;17.20;99.90
16995;DHT22;8614;48.522;9.206;2023-05-10T08:49:30;17.30;99.90
16995;DHT22;8614;48.522;9.206;2023-05-10T08:51:57;17.50;99.90
16995;DHT22;8614;48.522;9.206;2023-05-10T08:54:27;17.80;99.90
16995;DHT22;8614;48.522;9.206;2023-05-10T08:56:56;17.90;99.90
16995;DHT22;8614;48.522;9.206;2023-05-10T08:59:23;18.00;99.90
16995;DHT22;8614;48.522;9.206;2023-05-10T09:01:50;18.00;99.90
16995;DHT22;8614;48.522;9.206;2023-05-10T09:04:19;18.10;99.90
16995;DHT22;8614;48.522;9.206;2023-05-10T09:06:47;17.90;99.90
16995;DHT22;8614;48.522;9.206;2023-05-10T09:09:14;17.90;99.90
16995;DHT22;8614;48.522;9.206;2023-05-10T09:11:43;17.80;99.90
16995;DHT22;8614;48.522;9.206;2023-05-10T09:14:12;17.70;99.90
16995;DHT22;8614;48.522;9.206;2023-05-10T09:16:40;17.60;99.90
16995;DHT22;8614;48.522;9.206;2023-05-10T09:19:07;17.60;99.90
16995;DHT22;8614;48.522;9.206;2023-05-10T09:21:35;17.60;99.90
16995;DHT22;8614;48.522;9.206;2023-05-10T09:24:04;17.60;99.90
16995;DHT22;8614;48.522;9.206;2023-05-10T09:26:31;17.50;99.90
16995;DHT22;8614;48.522;9.206;2023-05-10T09:29:00;17.50;99.90
16995;DHT22;8614;48.522;9.206;2023-05-10T09:31:43;17.40;99.90
16995;DHT22;8614;48.522;9.206;2023-05-10T09:34:15;17.30;99.90
16995;DHT22;8614;48.522;9.206;2023-05-10T09:36:53;17.40;99.90
16995;DHT22;8614;48.522;9.206;2023-05-10T09:39:20;17.50;99.90
16995;DHT22;8614;48.522;9.206;2023-05-10T09:41:47;17.70;99.90
16995;DHT22;8614;48.522;9.206;2023-05-10T09:44:18;17.90;99.90
16995;DHT22;8614;48.522;9.206;2023-05-10T09:46:49;18.00;99.90
16995;DHT22;8614;48.522;9.206;2023-05-10T09:49:18;18.20;99.90
16995;DHT22;8614;48.522;9.206;2023-05-10T09:51:45;18.40;99.90
16995;DHT22;8614;48.522;9.206;2023-05-10T09:54:13;18.70;99.90
16995;DHT22;8614;48.522;9.206;2023-05-10T09:56:40;18.80;99.90
16995;DHT22;8614;48.522;9.206;2023-05-10T09:59:09;19.00;99.90
16995;DHT22;8614;48.522;9.206;2023-05-10T10:01:37;19.10;99.90
16995;DHT22;8614;48.522;9.206;2023-05-10T10:04:05;19.30;99.90
16995;DHT22;8614;48.522;9.206;2023-05-10T10:06:36;19.60;99.90
16995;DHT22;8614;48.522;9.206;2023-05-10T10:09:04;19.70;99.90
16995;DHT22;8614;48.522;9.206;2023-05-10T10:11:31;19.60;99.90
16995;DHT22;8614;48.522;9.206;2023-05-10T10:13:58;19.40;99.90
16995;DHT22;8614;48.522;9.206;2023-05-10T10:16:25;19.00;99.90
16995;DHT22;8614;48.522;9.206;2023-05-10T10:18:54;18.80;99.90
16995;DHT22;8614;48.522;9.206;2023-05-10T10:21:22;18.50;99.90
16995;DHT22;8614;48.522;9.206;2023-05-10T10:23:49;18.20;99.90
16995;DHT22;8614;48.522;9.206;2023-05-10T10:26:17;17.80;99.90
16995;DHT22;8614;48.522;9.206;2023-05-10T10:28:49;17.50;99.90
16995;DHT22;8614;48.522;9.206;2023-05-10T10:31:23;17.40;99.90
16995;DHT22;8614;48.522;9.206;2023-05-10T10:34:05;17.30;99.90
16995;DHT22;8614;48.522;9.206;2023-05-10T10:36:32;17.20;99.90
16995;DHT22;8614;48.522;9.206;2023-05-10T10:39:01;17.10;99.90
16995;DHT22;8614;48.522;9.206;2023-05-10T10:41:30;17.10;99.90
16995;DHT22;8614;48.522;9.206;2023-05-10T10:44:26;17.00;99.90
16995;DHT22;8614;48.522;9.206;2023-05-10T10:49:51;17.00;99.90
16995;DHT22;8614;48.522;9.206;2023-05-10T10:52:24;17.20;99.90
16995;DHT22;8614;48.522;9.206;2023-05-10T10:54:58;17.40;99.90
16995;DHT22;8614;48.522;9.206;2023-05-10T10:57:25;17.50;99.90
16995;DHT22;8614;48.522;9.206;2023-05-10T11:00:18;17.60;99.90
16995;DHT22;8614;48.522;9.206;2023-05-10T11:02:45;17.90;99.90
16995;DHT22;8614;48.522;9.206;2023-05-10T11:05:36;18.10;99.90
16995;DHT22;8614;48.522;9.206;2023-05-10T11:08:09;18.20;99.90
16995;DHT22;8614;48.522;9.206;2023-05-10T11:10:37;18.30;99.90
16995;DHT22;8614;48.522;9.206;2023-05-10T11:13:05;18.50;99.90
16995;DHT22;8614;48.522;9.206;2023-05-10T11:15:34;18.50;99.90
16995;DHT22;8614;48.522;9.206;2023-05-10T11:18:17;18.50;99.90
16995;DHT22;8614;48.522;9.206;2023-05-10T11:20:50;18.60;99.90
16995;DHT22;8614;48.522;9.206;2023-05-10T11:23:18;18.20;99.90
16995;DHT22;8614;48.522;9.206;2023-05-10T11:25:47;17.50;99.90
16995;DHT22;8614;48.522;9.206;2023-05-10T11:28:17;16.90;99.90
16995;DHT22;8614;48.522;9.206;2023-05-10T11:30:44;16.40;99.90
16995;DHT22;8614;48.522;9.206;2023-05-10T11:33:15;16.00;99.90
16995;DHT22;8614;48.522;9.206;2023-05-10T11:35:42;15.60;99.90
16995;DHT22;8614;48.522;9.206;2023-05-10T11:38:11;15.30;99.90
16995;DHT22;8614;48.522;9.206;2023-05-10T11:40:39;15.00;99.90
16995;DHT22;8614;48.522;9.206;2023-05-10T11:43:06;14.80;99.90
16995;DHT22;8614;48.522;9.206;2023-05-10T11:45:35;14.70;99.90
16995;DHT22;8614;48.522;9.206;2023-05-10T11:48:02;14.60;99.90
16995;DHT22;8614;48.522;9.206;2023-05-10T11:50:29;14.60;99.90
16995;DHT22;8614;48.522;9.206;2023-05-10T11:52:57;14.70;99.90
16995;DHT22;8614;48.522;9.206;2023-05-10T11:55:25;14.80;99.90
16995;DHT22;8614;48.522;9.206;2023-05-10T11:57:53;14.90;99.90
16995;DHT22;8614;48.522;9.206;2023-05-10T12:00:20;15.10;99.90
16995;DHT22;8614;48.522;9.206;2023-05-10T12:02:47;15.20;99.90
16995;DHT22;8614;48.522;9.206;2023-05-10T12:05:14;15.20;99.90
16995;DHT22;8614;48.522;9.206;2023-05-10T12:07:41;15.30;99.90
16995;DHT22;8614;48.522;9.206;2023-05-10T12:10:09;15.40;99.90
16995;DHT22;8614;48.522;9.206;2023-05-10T12:12:39;15.60;99.90
16995;DHT22;8614;48.522;9.206;2023-05-10T12:15:11;15.70;99.90
16995;DHT22;8614;48.522;9.206;2023-05-10T12:17:38;15.80;99.90
16995;DHT22;8614;48.522;9.206;2023-05-10T12:20:13;15.90;99.90
16995;DHT22;8614;48.522;9.206;2023-05-10T12:22:41;16.00;99.90
16995;DHT22;8614;48.522;9.206;2023-05-10T12:25:09;16.10;99.90
16995;DHT22;8614;48.522;9.206;2023-05-10T12:27:36;16.10;99.90
16995;DHT22;8614;48.522;9.206;2023-05-10T12:30:06;16.10;99.90
16995;DHT22;8614;48.522;9.206;2023-05-10T12:32:40;16.20;99.90
16995;DHT22;8614;48.522;9.206;2023-05-10T12:35:07;16.40;99.90
16995;DHT22;8614;48.522;9.206;2023-05-10T12:37:35;16.60;99.90
16995;DHT22;8614;48.522;9.206;2023-05-10T12:40:07;16.70;99.90
16995;DHT22;8614;48.522;9.206;2023-05-10T12:42:35;17.00;99.90
16995;DHT22;8614;48.522;9.206;2023-05-10T12:45:04;17.10;99.90
16995;DHT22;8614;48.522;9.206;2023-05-10T12:47:31;17.20;99.90
16995;DHT22;8614;48.522;9.206;2023-05-10T12:49:58;17.30;99.90
16995;DHT22;8614;48.522;9.206;2023-05-10T12:52:26;17.40;99.90
16995;DHT22;8614;48.522;9.206;2023-05-10T12:54:53;17.60;99.90
16995;DHT22;8614;48.522;9.206;2023-05-10T12:57:20;17.70;99.90
16995;DHT22;8614;48.522;9.206;2023-05-10T12:59:47;17.80;99.90
16995;DHT22;8614;48.522;9.206;2023-05-10T13:02:15;17.90;99.90
16995;DHT22;8614;48.522;9.206;2023-05-10T13:04:43;17.90;99.90
16995;DHT22;8614;48.522;9.206;2023-05-10T13:07:11;18.00;99.90
16995;DHT22;8614;48.522;9.206;2023-05-10T13:09:38;18.10;99.90
16995;DHT22;8614;48.522;9.206;2023-05-10T13:12:05;18.10;99.90
16995;DHT22;8614;48.522;9.206;2023-05-10T13:14:32;18.00;99.90
16995;DHT22;8614;48.522;9.206;2023-05-10T13:16:59;18.10;99.90
16995;DHT22;8614;48.522;9.206;2023-05-10T13:19:27;18.10;99.90
16995;DHT22;8614;48.522;9.206;2023-05-10T13:21:53;18.20;99.90
16995;DHT22;8614;48.522;9.206;2023-05-10T13:24:20;18.20;99.90
16995;DHT22;8614;48.522;9.206;2023-05-10T13:26:47;18.10;99.90
16995;DHT22;8614;48.522;9.206;2023-05-10T13:29:15;18.20;99.90
16995;DHT22;8614;48.522;9.206;2023-05-10T13:31:43;18.00;99.90
16995;DHT22;8614;48.522;9.206;2023-05-10T13:34:10;18.00;99.90
16995;DHT22;8614;48.522;9.206;2023-05-10T13:36:38;18.00;99.90
16995;DHT22;8614;48.522;9.206;2023-05-10T13:39:05;18.10;99.90
16995;DHT22;8614;48.522;9.206;2023-05-10T13:41:32;18.10;99.90
16995;DHT22;8614;48.522;9.206;2023-05-10T13:43:59;18.20;99.90
16995;DHT22;8614;48.522;9.206;2023-05-10T13:46:26;18.20;99.90
16995;DHT22;8614;48.522;9.206;2023-05-10T13:48:53;18.30;99.90
16995;DHT22;8614;48.522;9.206;2023-05-10T13:51:19;18.40;99.90
16995;DHT22;8614;48.522;9.206;2023-05-10T13:53:48;18.40;99.90
16995;DHT22;8614;48.522;9.206;2023-05-10T13:56:14;18.30;99.90
16995;DHT22;8614;48.522;9.206;2023-05-10T13:58:41;18.30;99.90
16995;DHT22;8614;48.522;9.206;2023-05-10T14:01:08;18.30;99.90
16995;DHT22;8614;48.522;9.206;2023-05-10T14:03:35;18.30;99.90
16995;DHT22;8614;48.522;9.206;2023-05-10T14:06:02;18.20;99.90
16995;DHT22;8614;48.522;9.206;2023-05-10T14:08:29;18.20;99.90
16995;DHT22;8614;48.522;9.206;2023-05-10T14:10:57;18.20;99.90
16995;DHT22;8614;48.522;9.206;2023-05-10T14:13:24;18.30;99.90
16995;DHT22;8614;48.522;9.206;2023-05-10T14:15:52;18.30;99.90
16995;DHT22;8614;48.522;9.206;2023-05-10T14:18:19;18.30;99.90
16995;DHT22;8614;48.522;9.206;2023-05-10T14:20:46;18.40;99.90
16995;DHT22;8614;48.522;9.206;2023-05-10T14:23:13;18.50;99.90
16995;DHT22;8614;48.522;9.206;2023-05-10T14:25:40;18.50;99.90
16995;DHT22;8614;48.522;9.206;2023-05-10T14:28:08;18.50;99.90
16995;DHT22;8614;48.522;9.206;2023-05-10T14:30:35;18.40;99.90
16995;DHT22;8614;48.522;9.206;2023-05-10T14:33:02;18.30;99.90
16995;DHT22;8614;48.522;9.206;2023-05-10T14:35:29;18.20;99.90
16995;DHT22;8614;48.522;9.206;2023-05-10T14:37:57;18.10;99.90
16995;DHT22;8614;48.522;9.206;2023-05-10T14:40:24;18.20;99.90
16995;DHT22;8614;48.522;9.206;2023-05-10T14:42:51;18.30;99.90
16995;DHT22;8614;48.522;9.206;2023-05-10T14:45:20;18.20;99.90
16995;DHT22;8614;48.522;9.206;2023-05-10T14:47:48;18.30;99.90
16995;DHT22;8614;48.522;9.206;2023-05-10T14:50:15;18.30;99.90
16995;DHT22;8614;48.522;9.206;2023-05-10T14:52:42;18.20;99.90
16995;DHT22;8614;48.522;9.206;2023-05-10T14:55:09;18.30;99.90
16995;DHT22;8614;48.522;9.206;2023-05-10T14:57:36;18.20;99.90
16995;DHT22;8614;48.522;9.206;2023-05-10T15:00:03;18.20;99.90
16995;DHT22;8614;48.522;9.206;2023-05-10T15:02:32;18.10;99.90
16995;DHT22;8614;48.522;9.206;2023-05-10T15:04:58;18.00;99.90
16995;DHT22;8614;48.522;9.206;2023-05-10T15:07:25;18.00;99.90
16995;DHT22;8614;48.522;9.206;2023-05-10T15:09:52;17.90;99.90
16995;DHT22;8614;48.522;9.206;2023-05-10T15:12:19;17.90;99.90
16995;DHT22;8614;48.522;9.206;2023-05-10T15:14:46;17.90;99.90
16995;DHT22;8614;48.522;9.206;2023-05-10T15:17:13;18.00;99.90
16995;DHT22;8614;48.522;9.206;2023-05-10T15:19:41;18.00;99.90
16995;DHT22;8614;48.522;9.206;2023-05-10T15:22:08;18.00;99.90
16995;DHT22;8614;48.522;9.206;2023-05-10T15:24:35;17.90;99.90
16995;DHT22;8614;48.522;9.206;2023-05-10T15:27:02;18.00;99.90
16995;DHT22;8614;48.522;9.206;2023-05-10T15:29:29;18.00;99.90
16995;DHT22;8614;48.522;9.206;2023-05-10T15:31:56;18.00;99.90
16995;DHT22;8614;48.522;9.206;2023-05-10T15:34:23;18.00;99.90
16995;DHT22;8614;48.522;9.206;2023-05-10T15:36:51;17.90;99.90
16995;DHT22;8614;48.522;9.206;2023-05-10T15:39:18;18.00;99.90
16995;DHT22;8614;48.522;9.206;2023-05-10T15:41:45;18.00;99.90
16995;DHT22;8614;48.522;9.206;2023-05-10T15:44:12;17.90;99.90
16995;DHT22;8614;48.522;9.206;2023-05-10T15:46:39;18.00;99.90
16995;DHT22;8614;48.522;9.206;2023-05-10T15:49:06;17.90;99.90
16995;DHT22;8614;48.522;9.206;2023-05-10T15:51:33;17.80;99.90
16995;DHT22;8614;48.522;9.206;2023-05-10T15:54:01;17.70;99.90
16995;DHT22;8614;48.522;9.206;2023-05-10T15:56:28;17.60;99.90